Time;durP1;ratioP1;P1;durP2;ratioP2;P2;SDS_P1;SDS_P2;PMS_P1;PMS_P2;Temp;Humidity;BMP_temperature;BMP_pressure;BME280_temperature;BME280_humidity;BME280_pressure;Samples;Min_cycle;Max_cycle;Signal;HPM_P1;HPM_P2
2024/02/06 00:00:40;;;;;;;17.38;7.88;;;;;;;5.02;74.54;100958.78;3144257;23;20099;-81
2024/02/06 00:01:57;;;;;;;15.80;7.60;;;;;;;5.01;74.47;100957.03;3144163;22;20076;-80
2024/02/06 00:03:10;;;;;;;12.75;10.00;;;;;;;4.99;74.55;100958.72;3144550;23;20073;-78
2024/02/06 00:04:25;;;;;;;12.35;7.15;;;;;;;4.97;74.52;100950.94;3144881;23;20032;-80
2024/02/06 00:05:38;;;;;;;9.77;6.80;;;;;;;4.95;74.55;100952.59;3143772;22;20553;-80
2024/02/06 00:06:53;;;;;;;11.75;6.22;;;;;;;4.94;74.70;100958.63;3144970;22;20027;-79
2024/02/06 00:08:06;;;;;;;10.65;6.25;;;;;;;4.92;74.59;100965.47;3144891;23;20031;-79
2024/02/06 00:09:21;;;;;;;14.35;7.65;;;;;;;4.91;74.55;100970.66;3144195;22;20091;-80
2024/02/06 00:10:34;;;;;;;11.13;7.45;;;;;;;4.91;74.79;100962.88;3144430;23;20031;-80
2024/02/06 00:11:50;;;;;;;16.63;8.73;;;;;;;4.89;74.92;100962.84;3144595;23;20513;-80
2024/02/06 00:13:03;;;;;;;14.25;6.65;;;;;;;4.88;75.00;100960.22;3145172;23;20031;-80
2024/02/06 00:14:18;;;;;;;15.05;5.60;;;;;;;4.86;75.07;100961.94;3143507;22;20122;-78
2024/02/06 00:15:31;;;;;;;13.40;8.10;;;;;;;4.85;74.87;100965.34;3143960;23;20024;-79
2024/02/06 00:16:46;;;;;;;13.80;7.60;;;;;;;4.85;75.11;100961.03;3144514;22;20104;-78
2024/02/06 00:18:01;;;;;;;13.48;7.25;;;;;;;4.85;75.30;100950.69;3145227;22;20054;-79
2024/02/06 00:19:15;;;;;;;12.05;7.75;;;;;;;4.85;75.30;100960.16;3145138;23;20406;-80
2024/02/06 00:20:28;;;;;;;12.18;6.65;;;;;;;4.85;75.15;100962.75;3151739;23;20020;-79
2024/02/06 00:21:43;;;;;;;11.15;7.25;;;;;;;4.85;75.09;100960.16;3150876;22;20047;-80
2024/02/06 00:22:56;;;;;;;12.82;7.40;;;;;;;4.84;75.19;100958.44;3154547;23;20012;-79
2024/02/06 00:24:12;;;;;;;10.38;7.40;;;;;;;4.84;75.41;100963.59;3154416;23;20020;-78
2024/02/06 00:25:25;;;;;;;12.43;6.38;;;;;;;4.85;75.35;100955.84;3148196;22;20070;-80
2024/02/06 00:26:41;;;;;;;13.10;7.90;;;;;;;4.87;75.24;100963.66;3144734;22;20046;-78
2024/02/06 00:27:55;;;;;;;14.07;9.32;;;;;;;4.87;75.44;100953.31;3146537;23;20077;-80
2024/02/06 00:29:10;;;;;;;11.95;8.77;;;;;;;4.88;75.43;100949.88;3145067;23;20101;-78
2024/02/06 00:30:23;;;;;;;13.15;7.45;;;;;;;4.90;75.08;100956.81;3144267;22;20027;-80
2024/02/06 00:31:38;;;;;;;14.43;8.35;;;;;;;4.91;75.03;100942.19;3145429;23;20024;-79
2024/02/06 00:32:52;;;;;;;13.02;7.03;;;;;;;4.91;75.26;100943.06;3146563;23;20024;-78
2024/02/06 00:34:06;;;;;;;16.85;7.50;;;;;;;4.92;75.27;100947.38;3144661;22;20030;-79
2024/02/06 00:35:20;;;;;;;13.27;8.93;;;;;;;4.93;75.29;100946.56;3145636;23;20024;-80
2024/02/06 00:36:34;;;;;;;11.63;8.02;;;;;;;4.94;75.19;100945.69;3145577;22;20113;-79
2024/02/06 00:37:48;;;;;;;11.15;7.97;;;;;;;4.93;75.24;100946.56;3144893;22;20020;-79
2024/02/06 00:39:02;;;;;;;16.42;9.02;;;;;;;4.96;75.30;100950.91;3146161;23;20392;-79
2024/02/06 00:40:16;;;;;;;11.27;7.00;;;;;;;4.96;75.20;100954.38;3144854;23;20392;-79
2024/02/06 00:41:31;;;;;;;15.00;7.47;;;;;;;4.98;75.25;100947.50;3145331;22;20078;-78
2024/02/06 00:42:45;;;;;;;16.17;7.32;;;;;;;4.99;75.08;100943.22;3150685;23;20020;-79
2024/02/06 00:44:00;;;;;;;10.88;6.80;;;;;;;5.02;75.34;100938.09;3146259;23;20078;-79
2024/02/06 00:45:17;;;;;;;12.32;6.55;;;;;;;5.05;75.29;100942.44;3146145;23;20035;-79
2024/02/06 00:46:31;;;;;;;12.98;6.78;;;;;;;5.05;75.14;100947.63;3145015;22;20024;-79
2024/02/06 00:47:49;;;;;;;26.02;9.75;;;;;;;5.07;74.95;100945.94;3145381;23;20020;-79
2024/02/06 00:49:03;;;;;;;15.55;7.88;;;;;;;5.11;74.70;100953.78;3145773;23;20451;-80
2024/02/06 00:50:17;;;;;;;12.80;6.85;;;;;;;5.12;74.94;100954.66;3144853;22;20027;-79
2024/02/06 00:51:31;;;;;;;12.75;7.05;;;;;;;5.14;74.91;100955.56;3146989;23;20072;-77
2024/02/06 00:52:45;;;;;;;11.75;7.93;;;;;;;5.15;74.88;100950.41;3145898;23;20024;-80
2024/02/06 00:53:59;;;;;;;11.65;7.68;;;;;;;5.18;74.91;100953.03;3145228;22;20060;-79
2024/02/06 00:55:13;;;;;;;15.50;7.78;;;;;;;5.20;74.79;100950.50;3145621;23;20051;-80
2024/02/06 00:56:28;;;;;;;10.18;6.88;;;;;;;5.21;74.56;100957.41;3146317;22;20028;-79
2024/02/06 00:57:41;;;;;;;19.63;8.95;;;;;;;5.22;74.62;100954.84;3144683;22;20336;-79
2024/02/06 00:58:56;;;;;;;15.45;8.13;;;;;;;5.23;74.74;100959.16;3146379;23;20060;-78
2024/02/06 01:00:12;;;;;;;11.30;8.23;;;;;;;5.24;74.59;100950.56;3145451;23;20016;-80
2024/02/06 01:01:26;;;;;;;10.50;8.05;;;;;;;5.26;74.50;100958.34;3145741;22;20024;-79
2024/02/06 01:02:40;;;;;;;14.25;7.63;;;;;;;5.25;74.66;100957.47;3145730;23;20028;-79
2024/02/06 01:03:54;;;;;;;13.25;8.93;;;;;;;5.27;74.27;100956.63;3145561;23;20091;-80
2024/02/06 01:05:08;;;;;;;9.32;7.00;;;;;;;5.27;74.33;100957.53;3146235;23;20036;-77
2024/02/06 01:06:22;;;;;;;12.43;7.20;;;;;;;5.27;74.26;100954.03;3144879;22;20091;-79
2024/02/06 01:07:36;;;;;;;14.77;8.15;;;;;;;5.28;74.27;100955.81;3146353;22;20020;-77
2024/02/06 01:08:50;;;;;;;10.82;6.82;;;;;;;5.27;74.08;100960.13;3151124;23;20025;-79
2024/02/06 01:10:05;;;;;;;18.05;10.32;;;;;;;5.28;74.16;100946.31;3145182;22;20027;-79
2024/02/06 01:11:20;;;;;;;12.35;7.68;;;;;;;5.29;74.14;100958.41;3149975;23;20051;-77
2024/02/06 01:12:33;;;;;;;18.23;7.43;;;;;;;5.31;74.28;100953.25;3151748;23;20040;-77
2024/02/06 01:13:47;;;;;;;17.30;5.97;;;;;;;5.32;74.06;100952.41;3152255;22;20024;-77
2024/02/06 01:15:01;;;;;;;11.30;6.55;;;;;;;5.32;73.94;100948.13;3153561;23;20020;-78
2024/02/06 01:16:17;;;;;;;12.40;7.13;;;;;;;5.33;73.86;100954.16;3147877;23;20023;-79
2024/02/06 01:17:30;;;;;;;12.18;8.10;;;;;;;5.34;74.07;100942.97;3147413;22;20035;-79
2024/02/06 01:18:44;;;;;;;10.27;7.40;;;;;;;5.35;73.82;100948.16;3146431;23;20091;-79
2024/02/06 01:19:58;;;;;;;13.77;7.60;;;;;;;5.35;73.65;100943.00;3146546;23;20031;-80
2024/02/06 01:21:12;;;;;;;12.55;8.07;;;;;;;5.37;73.66;100940.41;3146320;23;20094;-79
2024/02/06 01:22:26;;;;;;;15.48;9.23;;;;;;;5.37;73.69;100950.78;3145933;22;20467;-79
2024/02/06 01:23:40;;;;;;;14.43;7.43;;;;;;;5.38;73.76;100943.03;3145834;23;20058;-79
2024/02/06 01:24:54;;;;;;;15.18;8.35;;;;;;;5.37;73.89;100943.00;3145843;23;20020;-78
2024/02/06 01:26:09;;;;;;;14.32;8.02;;;;;;;5.38;73.94;100948.22;3145564;22;20095;-80
2024/02/06 01:27:22;;;;;;;11.95;7.20;;;;;;;5.39;73.92;100944.78;3145640;22;20071;-78
2024/02/06 01:28:37;;;;;;;13.52;8.63;;;;;;;5.40;73.95;100950.84;3145897;23;20460;-80
2024/02/06 01:29:50;;;;;;;14.68;7.57;;;;;;;5.40;73.73;100941.34;3145099;22;20562;-79
2024/02/06 01:31:05;;;;;;;12.18;5.85;;;;;;;5.41;73.81;100940.50;3145728;23;20024;-80
2024/02/06 01:32:20;;;;;;;10.70;7.28;;;;;;;5.42;73.78;100944.84;3144617;23;20477;-78
2024/02/06 01:33:34;;;;;;;15.15;7.30;;;;;;;5.43;73.71;100950.91;3145713;22;20020;-80
2024/02/06 01:34:48;;;;;;;14.95;8.65;;;;;;;5.44;73.55;100942.28;3145399;23;20028;-79
2024/02/06 01:36:02;;;;;;;19.83;7.88;;;;;;;5.44;73.66;100947.44;3146210;23;20095;-79
2024/02/06 01:37:16;;;;;;;13.90;7.60;;;;;;;5.44;73.85;100943.13;3145263;22;20024;-79
2024/02/06 01:38:30;;;;;;;19.20;8.75;;;;;;;5.45;73.59;100936.28;3145015;22;20091;-79
2024/02/06 01:39:44;;;;;;;10.27;6.10;;;;;;;5.45;73.65;100939.72;3145003;23;20082;-80
2024/02/06 01:40:58;;;;;;;14.05;8.27;;;;;;;5.47;73.41;100945.81;3145972;23;20080;-79
2024/02/06 01:42:12;;;;;;;17.35;7.03;;;;;;;5.46;73.29;100944.03;3145331;22;20020;-80
2024/02/06 01:43:26;;;;;;;17.02;8.45;;;;;;;5.49;73.29;100951.00;3146092;23;20425;-80
2024/02/06 01:44:40;;;;;;;13.63;7.22;;;;;;;5.49;72.99;100940.63;3145965;23;20028;-79
2024/02/06 01:45:55;;;;;;;15.95;8.52;;;;;;;5.51;73.22;100938.09;3145655;22;20095;-79
2024/02/06 01:47:08;;;;;;;15.57;7.78;;;;;;;5.51;73.24;100938.09;3145160;22;20370;-78
2024/02/06 01:48:24;;;;;;;11.52;7.70;;;;;;;5.51;73.18;100943.25;3146060;23;20020;-77
2024/02/06 01:49:38;;;;;;;13.90;7.45;;;;;;;5.52;73.11;100934.63;3144504;22;20024;-79
2024/02/06 01:50:52;;;;;;;22.90;9.55;;;;;;;5.50;72.94;100937.22;3145329;23;20410;-77
2024/02/06 01:52:06;;;;;;;15.38;9.45;;;;;;;5.53;73.02;100941.56;3146601;23;20071;-79
2024/02/06 01:53:22;;;;;;;15.00;6.82;;;;;;;5.53;72.99;100942.44;3145995;22;20024;-79
2024/02/06 01:54:35;;;;;;;20.25;8.75;;;;;;;5.54;73.38;100946.75;3146078;23;20020;-78
2024/02/06 01:55:50;;;;;;;17.23;6.55;;;;;;;5.55;73.06;100947.63;3145824;23;20076;-80
2024/02/06 01:57:04;;;;;;;11.45;7.75;;;;;;;5.54;73.09;100944.16;3146179;22;20046;-79
2024/02/06 01:58:19;;;;;;;17.58;7.93;;;;;;;5.56;72.73;100942.47;3145166;22;20031;-79
2024/02/06 01:59:32;;;;;;;13.95;7.95;;;;;;;5.56;72.95;100942.47;3146051;23;20477;-79
2024/02/06 02:00:47;;;;;;;11.60;6.38;;;;;;;5.58;72.76;100955.47;3146051;23;20028;-79
2024/02/06 02:02:01;;;;;;;15.52;6.50;;;;;;;5.58;72.58;100940.81;3147917;22;20024;-80
2024/02/06 02:03:15;;;;;;;14.32;7.25;;;;;;;5.57;72.35;100931.28;3146331;23;20024;-80
2024/02/06 02:04:31;;;;;;;19.65;7.70;;;;;;;5.58;72.68;100951.16;3146675;23;20027;-79
2024/02/06 02:05:45;;;;;;;12.10;6.72;;;;;;;5.57;72.21;100954.56;3145821;22;20020;-79
2024/02/06 02:06:59;;;;;;;9.70;7.07;;;;;;;5.56;72.64;100947.66;3146333;22;20031;-78
2024/02/06 02:08:14;;;;;;;14.85;8.63;;;;;;;5.57;72.38;100949.38;3146869;23;20072;-79
2024/02/06 02:09:27;;;;;;;10.27;7.30;;;;;;;5.56;72.53;100947.66;3145437;22;20028;-78
2024/02/06 02:10:42;;;;;;;18.52;9.05;;;;;;;5.56;72.66;100945.06;3145783;23;20020;-79
2024/02/06 02:11:57;;;;;;;16.58;8.13;;;;;;;5.58;72.72;100945.13;3145990;23;20113;-79
2024/02/06 02:13:11;;;;;;;13.73;9.90;;;;;;;5.57;72.58;100949.38;3145840;23;20047;-79
2024/02/06 02:14:24;;;;;;;18.85;7.43;;;;;;;5.57;72.65;100945.94;3145510;22;20024;-78
2024/02/06 02:15:39;;;;;;;13.45;8.40;;;;;;;5.56;72.73;100952.84;3146201;23;20091;-79
2024/02/06 02:16:52;;;;;;;12.98;7.18;;;;;;;5.56;72.36;100942.47;3145701;22;20024;-79
2024/02/06 02:18:08;;;;;;;15.15;8.35;;;;;;;5.57;72.81;100944.22;3146046;22;20071;-78
2024/02/06 02:19:22;;;;;;;14.23;7.40;;;;;;;5.56;72.76;100939.03;3146072;23;20459;-76
2024/02/06 02:20:37;;;;;;;11.98;8.30;;;;;;;5.56;72.63;100939.03;3145587;23;20091;-79
2024/02/06 02:21:52;;;;;;;21.23;8.73;;;;;;;5.57;72.72;100943.34;3144939;22;20027;-80
2024/02/06 02:23:07;;;;;;;25.38;11.13;;;;;;;5.56;72.75;100942.47;3145737;23;20089;-78
2024/02/06 02:24:20;;;;;;;16.27;7.80;;;;;;;5.57;72.52;100946.81;3144896;23;20461;-78
2024/02/06 02:25:35;;;;;;;13.30;7.53;;;;;;;5.58;72.51;100945.13;3145536;22;20103;-77
2024/02/06 02:26:49;;;;;;;15.45;8.27;;;;;;;5.56;72.53;100941.63;3145650;22;20355;-79
2024/02/06 02:28:03;;;;;;;23.38;9.90;;;;;;;5.55;72.55;100943.34;3146146;23;20099;-78
2024/02/06 02:29:17;;;;;;;14.45;7.38;;;;;;;5.55;72.60;100932.09;3146939;23;20474;-80
2024/02/06 02:30:32;;;;;;;20.02;8.60;;;;;;;5.55;72.70;100945.94;3154629;22;20040;-79
2024/02/06 02:31:46;;;;;;;16.95;7.22;;;;;;;5.56;72.67;100944.22;3151190;23;20023;-79
2024/02/06 02:33:01;;;;;;;21.13;8.65;;;;;;;5.54;72.47;100945.91;3145687;23;20054;-79
2024/02/06 02:34:14;;;;;;;17.08;9.15;;;;;;;5.54;72.61;100945.91;3144702;22;20020;-79
2024/02/06 02:35:29;;;;;;;16.80;7.75;;;;;;;5.54;72.52;100936.41;3146546;23;20072;-77
2024/02/06 02:36:43;;;;;;;18.27;10.73;;;;;;;5.55;72.37;100939.84;3145382;22;20024;-80
2024/02/06 02:37:58;;;;;;;14.57;7.82;;;;;;;5.54;72.36;100941.59;3145075;22;20107;-78
2024/02/06 02:39:12;;;;;;;16.45;8.52;;;;;;;5.55;72.27;100934.69;3145862;23;20032;-80
2024/02/06 02:40:26;;;;;;;13.15;6.82;;;;;;;5.55;72.33;100933.00;3146235;23;20023;-78
2024/02/06 02:41:40;;;;;;;15.50;8.65;;;;;;;5.54;72.44;100939.00;3145977;22;20035;-78
2024/02/06 02:42:55;;;;;;;20.60;9.07;;;;;;;5.55;72.39;100943.34;3145735;23;20095;-78
2024/02/06 02:44:08;;;;;;;12.85;8.63;;;;;;;5.56;72.36;100928.69;3146916;23;20028;-77
2024/02/06 02:45:23;;;;;;;12.40;7.97;;;;;;;5.56;72.55;100931.25;3144919;22;20070;-80
2024/02/06 02:46:36;;;;;;;15.82;8.70;;;;;;;5.55;72.52;100938.16;3145757;22;20016;-78
2024/02/06 02:47:51;;;;;;;14.10;8.75;;;;;;;5.55;72.31;100933.00;3145436;23;20420;-80
2024/02/06 02:49:04;;;;;;;20.50;8.07;;;;;;;5.55;72.47;100930.41;3147650;23;20024;-78
2024/02/06 02:50:19;;;;;;;11.93;7.43;;;;;;;5.55;72.54;100930.41;3142375;22;20087;-78
2024/02/06 02:51:32;;;;;;;15.52;8.48;;;;;;;5.56;72.56;100926.09;3144199;23;20017;-77
2024/02/06 02:52:47;;;;;;;23.42;7.80;;;;;;;5.57;72.24;100925.22;3143331;23;20024;-78
2024/02/06 02:54:02;;;;;;;16.33;7.97;;;;;;;5.57;72.30;100936.44;3143200;22;20020;-77
2024/02/06 02:55:16;;;;;;;13.90;7.43;;;;;;;5.58;72.07;100929.56;3143608;23;20024;-78
2024/02/06 02:56:30;;;;;;;16.08;9.48;;;;;;;5.58;72.11;100920.09;3143692;22;20031;-78
2024/02/06 02:57:44;;;;;;;13.27;6.97;;;;;;;5.57;72.06;100930.41;3142498;22;20071;-78
2024/02/06 02:58:58;;;;;;;11.93;7.45;;;;;;;5.58;72.04;100919.22;3143625;23;20031;-77
2024/02/06 03:00:14;;;;;;;15.95;7.53;;;;;;;5.57;71.86;100920.91;3148181;23;20023;-77
2024/02/06 03:01:27;;;;;;;13.65;7.40;;;;;;;5.57;72.15;100920.91;3143518;22;20347;-78
2024/02/06 03:02:41;;;;;;;17.02;7.97;;;;;;;5.58;72.11;100924.41;3143301;23;20098;-77
2024/02/06 03:03:55;;;;;;;10.45;7.50;;;;;;;5.59;72.12;100926.13;3143472;23;20024;-77
2024/02/06 03:05:09;;;;;;;13.48;8.88;;;;;;;5.58;72.10;100919.22;3143602;23;20095;-78
2024/02/06 03:06:23;;;;;;;14.70;8.55;;;;;;;5.57;71.95;100923.50;3142833;22;20095;-78
2024/02/06 03:07:37;;;;;;;13.60;7.20;;;;;;;5.56;72.12;100914.00;3143843;22;20510;-78
2024/02/06 03:08:51;;;;;;;7.82;5.95;;;;;;;5.55;72.14;100913.97;3143816;23;20024;-76
2024/02/06 03:10:07;;;;;;;18.40;6.93;;;;;;;5.55;71.81;100925.22;3143633;22;20099;-79
2024/02/06 03:11:21;;;;;;;15.80;8.27;;;;;;;5.56;71.92;100924.38;3143819;23;20024;-79
2024/02/06 03:12:35;;;;;;;13.88;9.07;;;;;;;5.56;71.94;100924.38;3144208;23;20083;-78
2024/02/06 03:13:50;;;;;;;13.02;7.60;;;;;;;5.57;71.89;100922.63;3143329;22;20024;-77
2024/02/06 03:15:06;;;;;;;11.43;8.02;;;;;;;5.55;72.09;100924.31;3144461;23;20051;-78
2024/02/06 03:16:20;;;;;;;12.98;8.13;;;;;;;5.54;71.83;100922.59;3143967;23;20019;-78
2024/02/06 03:17:34;;;;;;;11.80;7.68;;;;;;;5.53;72.27;100926.91;3144436;22;20517;-79
2024/02/06 03:18:48;;;;;;;14.63;7.10;;;;;;;5.54;72.10;100928.63;3144091;23;20032;-77
2024/02/06 03:20:04;;;;;;;23.98;8.88;;;;;;;5.54;72.14;100918.28;3144668;23;20786;-78
2024/02/06 03:21:18;;;;;;;15.32;6.95;;;;;;;5.54;72.16;100930.38;3143893;23;20035;-77
2024/02/06 03:22:33;;;;;;;16.65;7.50;;;;;;;5.54;72.42;100920.88;3144432;23;20026;-78
2024/02/06 03:23:46;;;;;;;15.00;6.85;;;;;;;5.54;72.27;100915.69;3144637;23;20031;-79
2024/02/06 03:25:01;;;;;;;11.77;7.60;;;;;;;5.54;72.15;100925.19;3145218;23;20048;-78
2024/02/06 03:26:16;;;;;;;14.43;9.35;;;;;;;5.53;72.23;100928.63;3144177;22;20020;-79
2024/02/06 03:27:30;;;;;;;9.82;5.95;;;;;;;5.52;72.18;100924.28;3144015;22;20412;-78
2024/02/06 03:28:44;;;;;;;16.15;8.40;;;;;;;5.52;72.39;100909.63;3143605;23;20031;-78
2024/02/06 03:29:58;;;;;;;13.27;9.50;;;;;;;5.51;72.37;100925.13;3143296;22;20114;-78
2024/02/06 03:31:12;;;;;;;16.00;8.82;;;;;;;5.50;72.42;100931.16;3144149;23;20388;-78
2024/02/06 03:32:26;;;;;;;14.13;7.80;;;;;;;5.50;72.49;100928.56;3143895;23;20024;-78
2024/02/06 03:33:39;;;;;;;12.63;8.10;;;;;;;5.51;72.34;100922.56;3144011;22;20035;-78
2024/02/06 03:34:54;;;;;;;17.70;7.40;;;;;;;5.51;72.72;100922.56;3144333;23;20424;-77
2024/02/06 03:36:08;;;;;;;18.38;8.68;;;;;;;5.49;72.58;100926.81;3145394;23;20020;-78
2024/02/06 03:37:22;;;;;;;16.55;10.85;;;;;;;5.50;72.63;100928.56;3144004;22;20024;-77
2024/02/06 03:38:36;;;;;;;12.40;6.35;;;;;;;5.46;72.85;100920.75;3143973;23;20407;-78
2024/02/06 03:39:50;;;;;;;17.85;10.05;;;;;;;5.44;72.74;100932.78;3142800;23;20094;-78
2024/02/06 03:41:04;;;;;;;16.83;9.50;;;;;;;5.44;72.82;100926.75;3145223;23;20020;-78
2024/02/06 03:42:19;;;;;;;12.57;8.73;;;;;;;5.44;73.03;100924.16;3143528;22;20173;-79
2024/02/06 03:43:33;;;;;;;16.98;10.18;;;;;;;5.43;73.21;100925.00;3144865;23;20394;-78
2024/02/06 03:44:47;;;;;;;11.95;8.02;;;;;;;5.43;73.17;100917.25;3143986;23;20106;-78
2024/02/06 03:46:01;;;;;;;13.52;7.22;;;;;;;5.42;73.30;100925.84;3144148;22;20024;-79
2024/02/06 03:47:15;;;;;;;15.30;8.98;;;;;;;5.41;73.32;100918.94;3143332;22;20099;-78
2024/02/06 03:48:34;;;;;;;13.82;7.63;;;;;;;5.40;73.44;100914.63;3143916;23;20336;-79
2024/02/06 03:49:49;;;;;;;15.32;9.20;;;;;;;5.39;73.36;100918.03;3142903;22;20028;-78
2024/02/06 03:51:02;;;;;;;12.10;8.48;;;;;;;5.37;73.38;100925.78;3143923;23;20016;-79
2024/02/06 03:52:17;;;;;;;11.60;7.53;;;;;;;5.38;73.36;100918.88;3143219;23;20030;-77
2024/02/06 03:53:32;;;;;;;13.23;8.35;;;;;;;5.37;73.13;100911.94;3145262;22;20020;-78
2024/02/06 03:54:47;;;;;;;14.48;8.48;;;;;;;5.36;73.58;100912.81;3145195;23;20052;-78
2024/02/06 03:56:00;;;;;;;13.27;7.65;;;;;;;5.37;73.29;100904.19;3145265;23;20024;-78
2024/02/06 03:57:14;;;;;;;9.68;6.32;;;;;;;5.37;73.31;100909.34;3146002;22;20050;-78
2024/02/06 03:58:29;;;;;;;12.25;7.47;;;;;;;5.36;73.28;100905.91;3144410;22;20533;-79
2024/02/06 03:59:44;;;;;;;17.23;9.10;;;;;;;5.38;73.38;100908.53;3145574;23;20091;-78
2024/02/06 04:00:57;;;;;;;10.65;7.68;;;;;;;5.38;73.33;100904.22;3145564;23;20404;-79
2024/02/06 04:02:12;;;;;;;11.43;8.88;;;;;;;5.39;73.28;100895.59;3144916;22;20028;-79
2024/02/06 04:03:25;;;;;;;15.50;8.50;;;;;;;5.40;73.14;100893.91;3145191;23;20020;-78
2024/02/06 04:04:40;;;;;;;12.63;7.72;;;;;;;5.41;73.15;100890.47;3145688;23;20099;-79
2024/02/06 04:05:53;;;;;;;12.93;7.85;;;;;;;5.39;72.88;100886.97;3144990;22;20024;-79
2024/02/06 04:07:08;;;;;;;15.05;7.97;;;;;;;5.38;73.03;100886.09;3145619;22;20343;-79
2024/02/06 04:08:21;;;;;;;15.13;7.88;;;;;;;5.39;72.94;100879.19;3145744;23;20031;-79
2024/02/06 04:09:35;;;;;;;14.55;8.95;;;;;;;5.39;73.02;100880.06;3145177;22;20043;-79
2024/02/06 04:10:49;;;;;;;10.27;6.47;;;;;;;5.40;72.73;100883.56;3145039;23;20364;-78
2024/02/06 04:12:04;;;;;;;8.60;6.82;;;;;;;5.38;72.88;100880.06;3145496;23;20091;-79
2024/02/06 04:13:17;;;;;;;11.35;7.75;;;;;;;5.39;72.90;100886.97;3149781;23;20024;-78
2024/02/06 04:14:33;;;;;;;11.85;6.90;;;;;;;5.38;72.97;100880.06;3152431;22;20020;-78
2024/02/06 04:15:47;;;;;;;10.25;7.03;;;;;;;5.39;73.02;100886.97;3154070;23;20048;-78
2024/02/06 04:17:01;;;;;;;8.48;6.53;;;;;;;5.37;72.95;100884.38;3153205;22;20024;-78
2024/02/06 04:18:15;;;;;;;10.48;7.03;;;;;;;5.39;72.66;100886.97;3151244;22;20019;-78
2024/02/06 04:19:29;;;;;;;8.32;6.53;;;;;;;5.38;72.60;100880.94;3145181;23;20056;-77
2024/02/06 04:20:42;;;;;;;14.85;6.30;;;;;;;5.37;72.95;100888.66;3144186;23;20347;-78
2024/02/06 04:21:57;;;;;;;13.27;8.95;;;;;;;5.35;72.61;100877.44;3143716;22;20038;-79
2024/02/06 04:23:11;;;;;;;13.98;7.20;;;;;;;5.34;72.50;100884.28;3145002;23;20021;-79
2024/02/06 04:24:25;;;;;;;15.90;11.13;;;;;;;5.32;72.41;100880.84;3145180;23;20096;-79
2024/02/06 04:25:38;;;;;;;10.90;7.05;;;;;;;5.31;72.51;100879.06;3144915;22;20035;-79
2024/02/06 04:26:53;;;;;;;11.60;7.13;;;;;;;5.30;72.47;100868.72;3144300;22;20103;-78
2024/02/06 04:28:06;;;;;;;14.02;7.78;;;;;;;5.29;72.46;100867.81;3144105;23;20031;-77
2024/02/06 04:29:21;;;;;;;19.73;8.40;;;;;;;5.30;72.37;100871.31;3147506;22;20075;-78
2024/02/06 04:30:36;;;;;;;9.23;6.93;;;;;;;5.28;72.41;100863.50;3151154;23;20020;-77
2024/02/06 04:31:50;;;;;;;10.88;6.90;;;;;;;5.30;72.42;100863.53;3151649;23;20024;-77
2024/02/06 04:33:04;;;;;;;8.65;6.80;;;;;;;5.28;72.33;100865.22;3149374;23;20024;-78
2024/02/06 04:34:19;;;;;;;14.40;8.10;;;;;;;5.29;72.47;100861.78;3144864;22;20054;-79
2024/02/06 04:35:32;;;;;;;11.68;7.93;;;;;;;5.29;72.41;100859.19;3145739;23;20031;-78
2024/02/06 04:36:46;;;;;;;13.10;7.53;;;;;;;5.29;72.04;100860.06;3144818;22;20095;-78
2024/02/06 04:38:00;;;;;;;11.90;9.45;;;;;;;5.29;72.19;100862.66;3145311;22;20023;-79
2024/02/06 04:39:15;;;;;;;22.17;7.35;;;;;;;5.30;72.13;100858.38;3145145;23;20048;-79
2024/02/06 04:40:28;;;;;;;9.80;6.72;;;;;;;5.31;71.86;100855.78;3144959;23;20028;-78
2024/02/06 04:41:43;;;;;;;13.52;6.25;;;;;;;5.32;72.13;100854.06;3143952;22;20107;-79
2024/02/06 04:42:56;;;;;;;9.60;6.90;;;;;;;5.33;72.12;100854.09;3144557;23;20028;-78
2024/02/06 04:44:11;;;;;;;13.77;6.18;;;;;;;5.31;71.81;100858.38;3144115;23;20467;-79
2024/02/06 04:45:24;;;;;;;9.38;6.53;;;;;;;5.31;71.85;100853.19;3144421;22;20027;-79
2024/02/06 04:46:40;;;;;;;9.53;7.73;;;;;;;5.32;72.14;100859.25;3104453;23;1043251;-79
2024/02/06 04:47:53;;;;;;;14.75;6.53;;;;;;;5.32;71.54;100856.66;3145206;23;20024;-78
2024/02/06 04:49:08;;;;;;;8.32;6.72;;;;;;;5.29;71.63;100848.84;3145917;23;20091;-78
2024/02/06 04:50:21;;;;;;;17.48;8.25;;;;;;;5.27;71.68;100851.44;3143845;22;20024;-79
2024/02/06 04:51:36;;;;;;;12.25;8.75;;;;;;;5.27;71.85;100847.94;3145560;23;20051;-79
2024/02/06 04:52:50;;;;;;;16.85;9.95;;;;;;;5.26;71.89;100849.66;3144974;23;20025;-78
2024/02/06 04:54:05;;;;;;;12.07;6.88;;;;;;;5.26;71.61;100847.06;3144877;22;20016;-79
2024/02/06 04:55:19;;;;;;;13.60;7.53;;;;;;;5.25;71.68;100843.63;3145519;23;20028;-79
2024/02/06 04:56:33;;;;;;;15.73;7.80;;;;;;;5.22;71.71;100843.59;3145063;22;20023;-77
2024/02/06 04:57:46;;;;;;;11.45;7.47;;;;;;;5.21;71.78;100826.31;3143964;22;20020;-79
2024/02/06 04:59:01;;;;;;;13.00;7.13;;;;;;;5.19;71.73;100840.94;3145483;23;20100;-78
2024/02/06 05:00:15;;;;;;;13.05;7.13;;;;;;;5.19;71.82;100840.94;3145820;23;20028;-79
2024/02/06 05:01:31;;;;;;;10.52;6.25;;;;;;;5.20;72.08;100837.50;3145246;22;20023;-78
2024/02/06 05:02:46;;;;;;;11.70;7.32;;;;;;;5.21;71.97;100839.25;3145423;23;20406;-78
2024/02/06 05:04:01;;;;;;;10.75;6.68;;;;;;;5.20;71.76;100834.91;3145721;23;20024;-78
2024/02/06 05:05:15;;;;;;;8.27;6.50;;;;;;;5.18;71.81;100830.56;3144789;23;20028;-78
2024/02/06 05:06:29;;;;;;;11.98;7.85;;;;;;;5.18;71.70;100841.78;3144421;22;20039;-78
2024/02/06 05:07:43;;;;;;;10.82;7.05;;;;;;;5.17;71.69;100842.63;3144541;23;20459;-79
2024/02/06 05:08:57;;;;;;;8.68;5.88;;;;;;;5.18;71.80;100825.38;3144828;23;20027;-78
2024/02/06 05:10:11;;;;;;;12.25;7.20;;;;;;;5.17;71.91;100829.69;3144995;22;20024;-79
2024/02/06 05:11:25;;;;;;;10.00;6.72;;;;;;;5.18;71.94;100828.84;3145570;23;20095;-78
2024/02/06 05:12:39;;;;;;;13.95;8.50;;;;;;;5.18;71.82;100821.06;3145400;23;20345;-79
2024/02/06 05:13:53;;;;;;;13.80;7.60;;;;;;;5.17;71.69;100829.69;3144932;22;20112;-78
2024/02/06 05:15:08;;;;;;;12.57;8.75;;;;;;;5.18;71.72;100827.97;3145623;23;20043;-78
2024/02/06 05:16:22;;;;;;;15.73;7.13;;;;;;;5.18;71.58;100828.84;3145302;23;20026;-78
2024/02/06 05:17:35;;;;;;;13.77;6.55;;;;;;;5.19;71.71;100821.97;3144589;22;20024;-78
2024/02/06 05:18:51;;;;;;;11.43;7.25;;;;;;;5.18;71.59;100810.72;3145384;23;20095;-78
2024/02/06 05:20:05;;;;;;;14.77;7.53;;;;;;;5.19;71.63;100809.91;3144418;23;20024;-79
2024/02/06 05:21:20;;;;;;;13.70;7.97;;;;;;;5.21;71.63;100809.91;3144560;22;20076;-78
2024/02/06 05:22:34;;;;;;;15.07;6.57;;;;;;;5.21;71.44;100823.75;3144914;23;20016;-78
2024/02/06 05:23:48;;;;;;;13.45;7.05;;;;;;;5.21;71.64;100805.63;3144735;23;20095;-78
2024/02/06 05:25:02;;;;;;;14.82;7.68;;;;;;;5.23;71.56;100810.81;3144423;23;20363;-78
2024/02/06 05:26:16;;;;;;;8.75;5.68;;;;;;;5.23;71.52;100810.81;3143083;22;20040;-78
2024/02/06 05:27:29;;;;;;;9.80;7.47;;;;;;;5.22;71.37;100812.53;3144097;22;20020;-78
2024/02/06 05:28:44;;;;;;;13.85;7.68;;;;;;;5.22;71.42;100811.66;3144131;23;20498;-78
2024/02/06 05:29:58;;;;;;;12.73;6.05;;;;;;;5.23;71.38;100831.50;3143773;22;20024;-78
2024/02/06 05:31:13;;;;;;;7.95;6.25;;;;;;;5.24;71.25;100809.97;3143744;23;20499;-78
2024/02/06 05:32:26;;;;;;;11.80;7.15;;;;;;;5.24;71.10;100808.25;3144158;23;20029;-78
2024/02/06 05:33:41;;;;;;;11.48;6.22;;;;;;;5.25;71.05;100815.16;3142821;22;20051;-78
2024/02/06 05:34:57;;;;;;;17.92;6.28;;;;;;;5.25;71.14;100809.13;3144052;23;20024;-78
2024/02/06 05:36:11;;;;;;;11.10;5.70;;;;;;;5.27;71.04;100822.97;3144397;23;20027;-78
2024/02/06 05:37:25;;;;;;;9.48;6.38;;;;;;;5.27;70.96;100806.53;3142749;22;20359;-78
2024/02/06 05:38:40;;;;;;;6.13;4.97;;;;;;;5.28;70.85;100805.72;3144034;23;20103;-78
2024/02/06 05:39:53;;;;;;;11.25;5.50;;;;;;;5.29;70.97;100810.03;3143672;23;20024;-78
2024/02/06 05:41:11;;;;;;;8.48;5.75;;;;;;;5.31;70.95;100810.94;3144136;23;20091;-77
2024/02/06 05:42:25;;;;;;;8.05;5.85;;;;;;;5.31;71.03;100810.94;3143132;22;20024;-78
2024/02/06 05:43:39;;;;;;;7.20;5.38;;;;;;;5.32;70.97;100813.56;3143661;23;20437;-78
2024/02/06 05:44:52;;;;;;;9.13;6.28;;;;;;;5.32;70.72;100821.31;3145052;23;20032;-77
2024/02/06 05:46:07;;;;;;;15.95;7.30;;;;;;;5.34;70.75;100808.38;3144535;22;20420;-78